Portada
METAR-TAF:

METAR-TAF

Aeroports :

Aeroport de Vigo

Vigo, Espanya

latitud: 42-13N, longitud: 008-38W, altitud: 264 m

Observació

L'informe es va fer fa 14 hores i 52 minuts, a les 05:00 UTC
Vent 6 kt del Oest/Sud-Oest, variant entre Sud/Sud-Oest i Oest/Nord-Oest
Temperatura 21°C
Humitat 78%
Pressió 1015 hPa
Visibilitat 10 km o més
sense núvols per sota de 1500 mi sense presència de cumulonimbus.

METAR: LEVX 210500Z 25006KT 210V290 CAVOK 21/17 Q1015 NOSIG

Hora: 21:52 (19:52 UTC)

Pronòstic

L'informe es va fer fa 14 hores i 52 minuts, a les 05:00 UTC
Pronòstic vàlid del 21 a les 06 UTC al 22 a les 06 UTC
Vent 5 kt amb direcció variable
Visibilitat 10 km o més
sense núvols per sota de 1500 mi sense presència de cumulonimbus.
Temporalment
l' 21 a les 11 UTC al 21 a les 18 UTC
Vent 10 kt del Oest/Nord-Oest

TAF: LEVX 210500Z 2106/2206 VRB05KT CAVOK TX33/2115Z TN19/2206Z TEMPO 2111/2118 29010KT

Observacions i pronòstics meteorològics de més de 4000 aeroports (METAR i TAF).

Les estacions disponibles són els punts grocs i vermells al mapa.

Posi el ratolí al punt desitjat per veure el nom de l'estació.

Feu clic per veure les observacions i els pronòstics meteorològics.

Per canviar el mapa: feu clic els botons verds amb una creu de color negre per apropar; al botó verd amb un guió per allunyar la imatge; o en les fletxes verdes per a mapes adjacents.


METAR-TAF: